sensor_id;sensor_type;location;lat;lon;timestamp;P1;durP1;ratioP1;P2;durP2;ratioP2
77591;SDS011;66891;46.884;17.436;2023-03-23T00:01:28;10.10;;;3.45;;
77591;SDS011;66891;46.884;17.436;2023-03-23T00:03:57;8.27;;;2.88;;
77591;SDS011;66891;46.884;17.436;2023-03-23T00:06:24;10.77;;;2.90;;
77591;SDS011;66891;46.884;17.436;2023-03-23T00:08:52;8.30;;;2.95;;
77591;SDS011;66891;46.884;17.436;2023-03-23T00:11:27;8.10;;;2.67;;
77591;SDS011;66891;46.884;17.436;2023-03-23T00:13:55;8.82;;;2.75;;
77591;SDS011;66891;46.884;17.436;2023-03-23T00:16:24;9.07;;;2.80;;
77591;SDS011;66891;46.884;17.436;2023-03-23T00:18:58;8.47;;;2.47;;
77591;SDS011;66891;46.884;17.436;2023-03-23T00:21:26;8.18;;;2.45;;
77591;SDS011;66891;46.884;17.436;2023-03-23T00:24:05;8.43;;;2.67;;
77591;SDS011;66891;46.884;17.436;2023-03-23T00:26:36;7.53;;;2.33;;
77591;SDS011;66891;46.884;17.436;2023-03-23T00:29:06;8.18;;;2.40;;
77591;SDS011;66891;46.884;17.436;2023-03-23T00:31:33;7.73;;;2.70;;
77591;SDS011;66891;46.884;17.436;2023-03-23T00:34:02;7.38;;;2.25;;
77591;SDS011;66891;46.884;17.436;2023-03-23T00:36:29;7.30;;;2.72;;
77591;SDS011;66891;46.884;17.436;2023-03-23T00:38:57;7.47;;;2.35;;
77591;SDS011;66891;46.884;17.436;2023-03-23T00:41:27;8.50;;;2.80;;
77591;SDS011;66891;46.884;17.436;2023-03-23T00:43:56;9.67;;;2.63;;
77591;SDS011;66891;46.884;17.436;2023-03-23T00:46:25;7.00;;;2.42;;
77591;SDS011;66891;46.884;17.436;2023-03-23T00:48:56;7.45;;;2.50;;
77591;SDS011;66891;46.884;17.436;2023-03-23T00:51:23;8.80;;;2.47;;
77591;SDS011;66891;46.884;17.436;2023-03-23T00:53:50;11.40;;;2.78;;
77591;SDS011;66891;46.884;17.436;2023-03-23T00:56:19;8.53;;;2.37;;
77591;SDS011;66891;46.884;17.436;2023-03-23T00:58:45;7.97;;;2.33;;
77591;SDS011;66891;46.884;17.436;2023-03-23T01:01:16;8.40;;;2.55;;
77591;SDS011;66891;46.884;17.436;2023-03-23T01:03:42;6.88;;;2.08;;
77591;SDS011;66891;46.884;17.436;2023-03-23T01:06:09;6.93;;;2.40;;
77591;SDS011;66891;46.884;17.436;2023-03-23T01:08:38;7.20;;;2.10;;
77591;SDS011;66891;46.884;17.436;2023-03-23T01:11:11;8.38;;;2.40;;
77591;SDS011;66891;46.884;17.436;2023-03-23T01:13:40;7.45;;;2.28;;
77591;SDS011;66891;46.884;17.436;2023-03-23T01:16:07;7.32;;;2.30;;
77591;SDS011;66891;46.884;17.436;2023-03-23T01:18:35;7.82;;;2.50;;
77591;SDS011;66891;46.884;17.436;2023-03-23T01:21:03;8.57;;;2.43;;
77591;SDS011;66891;46.884;17.436;2023-03-23T01:23:35;7.63;;;2.40;;
77591;SDS011;66891;46.884;17.436;2023-03-23T01:26:05;8.73;;;2.50;;
77591;SDS011;66891;46.884;17.436;2023-03-23T01:28:33;8.80;;;2.20;;
77591;SDS011;66891;46.884;17.436;2023-03-23T01:31:00;7.75;;;2.28;;
77591;SDS011;66891;46.884;17.436;2023-03-23T01:33:27;7.23;;;2.03;;
77591;SDS011;66891;46.884;17.436;2023-03-23T01:35:55;8.25;;;2.70;;
77591;SDS011;66891;46.884;17.436;2023-03-23T01:38:21;6.90;;;2.08;;
77591;SDS011;66891;46.884;17.436;2023-03-23T01:40:47;7.38;;;2.45;;
77591;SDS011;66891;46.884;17.436;2023-03-23T01:43:14;7.80;;;2.38;;
77591;SDS011;66891;46.884;17.436;2023-03-23T01:45:41;7.77;;;2.90;;
77591;SDS011;66891;46.884;17.436;2023-03-23T01:48:09;7.75;;;2.60;;
77591;SDS011;66891;46.884;17.436;2023-03-23T01:50:42;7.68;;;2.45;;
77591;SDS011;66891;46.884;17.436;2023-03-23T01:53:14;6.72;;;2.33;;
77591;SDS011;66891;46.884;17.436;2023-03-23T01:55:41;7.57;;;2.20;;
77591;SDS011;66891;46.884;17.436;2023-03-23T01:58:09;8.03;;;2.40;;
77591;SDS011;66891;46.884;17.436;2023-03-23T02:00:37;7.88;;;2.58;;
77591;SDS011;66891;46.884;17.436;2023-03-23T02:03:07;7.85;;;2.53;;
77591;SDS011;66891;46.884;17.436;2023-03-23T02:05:36;7.90;;;2.42;;
77591;SDS011;66891;46.884;17.436;2023-03-23T02:08:07;12.32;;;2.42;;
77591;SDS011;66891;46.884;17.436;2023-03-23T02:10:37;9.07;;;2.20;;
77591;SDS011;66891;46.884;17.436;2023-03-23T02:13:04;8.43;;;2.70;;
77591;SDS011;66891;46.884;17.436;2023-03-23T02:15:33;7.85;;;2.20;;
77591;SDS011;66891;46.884;17.436;2023-03-23T02:18:13;7.45;;;2.50;;
77591;SDS011;66891;46.884;17.436;2023-03-23T02:21:04;7.35;;;2.15;;
77591;SDS011;66891;46.884;17.436;2023-03-23T02:26:58;6.97;;;2.20;;
77591;SDS011;66891;46.884;17.436;2023-03-23T02:29:36;8.43;;;2.40;;
77591;SDS011;66891;46.884;17.436;2023-03-23T02:32:32;7.90;;;2.17;;
77591;SDS011;66891;46.884;17.436;2023-03-23T02:35:17;7.80;;;2.40;;
77591;SDS011;66891;46.884;17.436;2023-03-23T02:37:46;6.83;;;2.07;;
77591;SDS011;66891;46.884;17.436;2023-03-23T02:40:17;7.13;;;2.20;;
77591;SDS011;66891;46.884;17.436;2023-03-23T02:42:47;7.80;;;2.60;;
77591;SDS011;66891;46.884;17.436;2023-03-23T02:45:16;7.72;;;2.60;;
77591;SDS011;66891;46.884;17.436;2023-03-23T02:47:43;7.72;;;2.45;;
77591;SDS011;66891;46.884;17.436;2023-03-23T02:50:13;8.97;;;2.20;;
77591;SDS011;66891;46.884;17.436;2023-03-23T02:52:43;10.85;;;2.50;;
77591;SDS011;66891;46.884;17.436;2023-03-23T02:55:11;8.05;;;2.30;;
77591;SDS011;66891;46.884;17.436;2023-03-23T02:57:39;8.57;;;2.30;;
77591;SDS011;66891;46.884;17.436;2023-03-23T03:00:06;7.40;;;2.30;;
77591;SDS011;66891;46.884;17.436;2023-03-23T03:02:38;7.37;;;2.30;;
77591;SDS011;66891;46.884;17.436;2023-03-23T03:05:10;7.00;;;2.58;;
77591;SDS011;66891;46.884;17.436;2023-03-23T03:07:48;6.70;;;2.25;;
77591;SDS011;66891;46.884;17.436;2023-03-23T03:10:25;7.22;;;2.33;;
77591;SDS011;66891;46.884;17.436;2023-03-23T03:13:00;8.07;;;2.45;;
77591;SDS011;66891;46.884;17.436;2023-03-23T03:15:33;6.57;;;1.83;;
77591;SDS011;66891;46.884;17.436;2023-03-23T03:18:08;7.80;;;2.40;;
77591;SDS011;66891;46.884;17.436;2023-03-23T03:20:40;7.32;;;2.30;;
77591;SDS011;66891;46.884;17.436;2023-03-23T03:23:15;8.18;;;2.60;;
77591;SDS011;66891;46.884;17.436;2023-03-23T03:25:43;9.15;;;2.50;;
77591;SDS011;66891;46.884;17.436;2023-03-23T03:28:15;7.10;;;2.40;;
77591;SDS011;66891;46.884;17.436;2023-03-23T03:30:43;9.30;;;2.65;;
77591;SDS011;66891;46.884;17.436;2023-03-23T03:33:14;7.47;;;2.28;;
77591;SDS011;66891;46.884;17.436;2023-03-23T03:35:43;8.05;;;2.42;;
77591;SDS011;66891;46.884;17.436;2023-03-23T03:38:10;9.80;;;2.30;;
77591;SDS011;66891;46.884;17.436;2023-03-23T03:40:39;7.07;;;2.10;;
77591;SDS011;66891;46.884;17.436;2023-03-23T03:43:05;7.55;;;2.53;;
77591;SDS011;66891;46.884;17.436;2023-03-23T03:45:32;8.52;;;2.65;;
77591;SDS011;66891;46.884;17.436;2023-03-23T03:47:59;7.65;;;2.17;;
77591;SDS011;66891;46.884;17.436;2023-03-23T03:50:27;7.93;;;2.22;;
77591;SDS011;66891;46.884;17.436;2023-03-23T03:52:55;7.43;;;2.43;;
77591;SDS011;66891;46.884;17.436;2023-03-23T03:55:21;7.18;;;2.47;;
77591;SDS011;66891;46.884;17.436;2023-03-23T03:57:49;7.35;;;2.28;;
77591;SDS011;66891;46.884;17.436;2023-03-23T04:00:16;7.10;;;2.63;;
77591;SDS011;66891;46.884;17.436;2023-03-23T04:02:45;6.78;;;2.00;;
77591;SDS011;66891;46.884;17.436;2023-03-23T04:05:19;7.87;;;2.20;;
77591;SDS011;66891;46.884;17.436;2023-03-23T04:07:47;7.70;;;2.30;;
77591;SDS011;66891;46.884;17.436;2023-03-23T04:10:17;8.05;;;2.30;;
77591;SDS011;66891;46.884;17.436;2023-03-23T04:12:47;8.07;;;2.25;;
77591;SDS011;66891;46.884;17.436;2023-03-23T04:15:15;7.35;;;2.00;;
77591;SDS011;66891;46.884;17.436;2023-03-23T04:17:43;7.27;;;2.27;;
77591;SDS011;66891;46.884;17.436;2023-03-23T04:20:10;12.25;;;2.40;;
77591;SDS011;66891;46.884;17.436;2023-03-23T04:22:43;9.05;;;2.10;;
77591;SDS011;66891;46.884;17.436;2023-03-23T04:25:10;7.45;;;1.88;;
77591;SDS011;66891;46.884;17.436;2023-03-23T04:27:37;7.72;;;2.13;;
77591;SDS011;66891;46.884;17.436;2023-03-23T04:30:11;7.40;;;2.17;;
77591;SDS011;66891;46.884;17.436;2023-03-23T04:32:39;7.80;;;2.10;;
77591;SDS011;66891;46.884;17.436;2023-03-23T04:35:09;6.82;;;1.80;;
77591;SDS011;66891;46.884;17.436;2023-03-23T04:37:37;7.82;;;2.17;;
77591;SDS011;66891;46.884;17.436;2023-03-23T04:40:04;7.40;;;1.95;;
77591;SDS011;66891;46.884;17.436;2023-03-23T04:42:35;8.47;;;2.47;;
77591;SDS011;66891;46.884;17.436;2023-03-23T04:45:03;6.95;;;2.05;;
77591;SDS011;66891;46.884;17.436;2023-03-23T04:47:41;7.47;;;2.17;;
77591;SDS011;66891;46.884;17.436;2023-03-23T04:50:15;7.97;;;2.20;;
77591;SDS011;66891;46.884;17.436;2023-03-23T04:52:42;8.65;;;1.95;;
77591;SDS011;66891;46.884;17.436;2023-03-23T04:55:14;7.00;;;2.17;;
77591;SDS011;66891;46.884;17.436;2023-03-23T04:57:41;7.47;;;2.10;;
77591;SDS011;66891;46.884;17.436;2023-03-23T05:00:08;7.05;;;2.17;;
77591;SDS011;66891;46.884;17.436;2023-03-23T05:02:41;7.45;;;1.90;;
77591;SDS011;66891;46.884;17.436;2023-03-23T05:05:09;7.43;;;2.40;;
77591;SDS011;66891;46.884;17.436;2023-03-23T05:07:36;7.97;;;2.47;;
77591;SDS011;66891;46.884;17.436;2023-03-23T05:10:03;8.02;;;2.20;;
77591;SDS011;66891;46.884;17.436;2023-03-23T05:12:31;7.30;;;2.40;;
77591;SDS011;66891;46.884;17.436;2023-03-23T05:14:57;9.18;;;2.92;;
77591;SDS011;66891;46.884;17.436;2023-03-23T05:17:24;8.52;;;3.00;;
77591;SDS011;66891;46.884;17.436;2023-03-23T05:19:52;8.43;;;2.57;;
77591;SDS011;66891;46.884;17.436;2023-03-23T05:22:19;9.57;;;2.65;;
77591;SDS011;66891;46.884;17.436;2023-03-23T05:24:49;8.52;;;2.10;;
77591;SDS011;66891;46.884;17.436;2023-03-23T05:27:18;9.32;;;2.80;;
77591;SDS011;66891;46.884;17.436;2023-03-23T05:29:45;6.55;;;2.10;;
77591;SDS011;66891;46.884;17.436;2023-03-23T05:32:14;9.20;;;2.30;;
77591;SDS011;66891;46.884;17.436;2023-03-23T05:34:40;8.63;;;2.95;;
77591;SDS011;66891;46.884;17.436;2023-03-23T05:37:09;8.48;;;3.03;;
77591;SDS011;66891;46.884;17.436;2023-03-23T05:39:37;17.70;;;8.05;;
77591;SDS011;66891;46.884;17.436;2023-03-23T05:42:03;20.17;;;10.30;;
77591;SDS011;66891;46.884;17.436;2023-03-23T05:44:32;17.60;;;8.70;;
77591;SDS011;66891;46.884;17.436;2023-03-23T05:46:58;17.65;;;9.07;;
77591;SDS011;66891;46.884;17.436;2023-03-23T05:49:28;18.65;;;9.00;;
77591;SDS011;66891;46.884;17.436;2023-03-23T05:51:55;21.63;;;8.48;;
77591;SDS011;66891;46.884;17.436;2023-03-23T05:54:22;18.50;;;7.80;;
77591;SDS011;66891;46.884;17.436;2023-03-23T05:56:48;20.13;;;9.10;;
77591;SDS011;66891;46.884;17.436;2023-03-23T05:59:14;16.63;;;6.68;;
77591;SDS011;66891;46.884;17.436;2023-03-23T06:01:41;18.45;;;7.20;;
77591;SDS011;66891;46.884;17.436;2023-03-23T06:04:09;14.80;;;6.22;;
77591;SDS011;66891;46.884;17.436;2023-03-23T06:06:43;14.98;;;6.72;;
77591;SDS011;66891;46.884;17.436;2023-03-23T06:09:09;12.70;;;5.23;;
77591;SDS011;66891;46.884;17.436;2023-03-23T06:11:39;15.07;;;4.65;;
77591;SDS011;66891;46.884;17.436;2023-03-23T06:14:06;12.85;;;4.18;;
77591;SDS011;66891;46.884;17.436;2023-03-23T06:16:33;12.07;;;3.92;;
77591;SDS011;66891;46.884;17.436;2023-03-23T06:18:59;11.73;;;3.58;;
77591;SDS011;66891;46.884;17.436;2023-03-23T06:21:26;11.10;;;4.40;;
77591;SDS011;66891;46.884;17.436;2023-03-23T06:23:53;12.80;;;4.72;;
77591;SDS011;66891;46.884;17.436;2023-03-23T06:26:24;11.25;;;4.38;;
77591;SDS011;66891;46.884;17.436;2023-03-23T06:28:55;13.65;;;4.65;;
77591;SDS011;66891;46.884;17.436;2023-03-23T06:31:21;11.75;;;4.32;;
77591;SDS011;66891;46.884;17.436;2023-03-23T06:33:48;10.10;;;4.13;;
77591;SDS011;66891;46.884;17.436;2023-03-23T06:36:14;12.05;;;4.10;;
77591;SDS011;66891;46.884;17.436;2023-03-23T06:38:41;12.02;;;4.30;;
77591;SDS011;66891;46.884;17.436;2023-03-23T06:41:10;16.48;;;4.50;;
77591;SDS011;66891;46.884;17.436;2023-03-23T06:43:37;12.77;;;4.25;;
77591;SDS011;66891;46.884;17.436;2023-03-23T06:46:06;12.13;;;3.87;;
77591;SDS011;66891;46.884;17.436;2023-03-23T06:48:33;8.20;;;2.70;;
77591;SDS011;66891;46.884;17.436;2023-03-23T06:50:59;13.48;;;3.35;;
77591;SDS011;66891;46.884;17.436;2023-03-23T06:57:23;9.55;;;2.63;;
77591;SDS011;66891;46.884;17.436;2023-03-23T06:59:50;10.43;;;2.80;;
77591;SDS011;66891;46.884;17.436;2023-03-23T07:02:20;10.88;;;2.83;;
77591;SDS011;66891;46.884;17.436;2023-03-23T07:04:46;8.02;;;2.97;;
77591;SDS011;66891;46.884;17.436;2023-03-23T07:07:15;11.73;;;2.92;;
77591;SDS011;66891;46.884;17.436;2023-03-23T07:09:44;7.45;;;2.50;;
77591;SDS011;66891;46.884;17.436;2023-03-23T07:12:16;7.37;;;2.67;;
77591;SDS011;66891;46.884;17.436;2023-03-23T07:14:43;7.20;;;2.38;;
77591;SDS011;66891;46.884;17.436;2023-03-23T07:17:13;7.70;;;2.53;;
77591;SDS011;66891;46.884;17.436;2023-03-23T07:19:41;7.65;;;2.45;;
77591;SDS011;66891;46.884;17.436;2023-03-23T07:22:07;7.88;;;2.63;;
77591;SDS011;66891;46.884;17.436;2023-03-23T07:24:40;7.53;;;2.50;;
77591;SDS011;66891;46.884;17.436;2023-03-23T07:27:07;9.95;;;3.05;;
77591;SDS011;66891;46.884;17.436;2023-03-23T07:33:36;6.90;;;2.40;;
77591;SDS011;66891;46.884;17.436;2023-03-23T07:36:07;6.97;;;2.50;;
77591;SDS011;66891;46.884;17.436;2023-03-23T07:38:37;6.97;;;2.70;;
77591;SDS011;66891;46.884;17.436;2023-03-23T07:41:04;8.25;;;2.78;;
77591;SDS011;66891;46.884;17.436;2023-03-23T07:43:40;9.15;;;2.83;;
77591;SDS011;66891;46.884;17.436;2023-03-23T07:46:07;11.15;;;2.90;;
77591;SDS011;66891;46.884;17.436;2023-03-23T07:48:33;9.57;;;2.63;;
77591;SDS011;66891;46.884;17.436;2023-03-23T07:51:00;9.00;;;2.33;;
77591;SDS011;66891;46.884;17.436;2023-03-23T07:53:28;8.07;;;2.35;;
77591;SDS011;66891;46.884;17.436;2023-03-23T07:55:55;7.65;;;2.58;;
77591;SDS011;66891;46.884;17.436;2023-03-23T07:58:23;6.80;;;2.08;;
77591;SDS011;66891;46.884;17.436;2023-03-23T08:00:49;8.18;;;1.92;;
77591;SDS011;66891;46.884;17.436;2023-03-23T08:03:15;10.23;;;2.20;;
77591;SDS011;66891;46.884;17.436;2023-03-23T08:05:42;9.90;;;2.40;;
77591;SDS011;66891;46.884;17.436;2023-03-23T08:08:08;8.20;;;2.50;;
77591;SDS011;66891;46.884;17.436;2023-03-23T08:10:36;8.18;;;2.25;;
77591;SDS011;66891;46.884;17.436;2023-03-23T08:13:03;7.50;;;2.40;;
77591;SDS011;66891;46.884;17.436;2023-03-23T08:15:31;7.87;;;2.60;;
77591;SDS011;66891;46.884;17.436;2023-03-23T08:18:03;8.02;;;2.80;;
77591;SDS011;66891;46.884;17.436;2023-03-23T08:20:31;8.20;;;2.38;;
77591;SDS011;66891;46.884;17.436;2023-03-23T08:23:02;7.80;;;2.35;;
77591;SDS011;66891;46.884;17.436;2023-03-23T08:28:47;7.27;;;2.30;;
77591;SDS011;66891;46.884;17.436;2023-03-23T08:31:14;7.25;;;2.40;;
77591;SDS011;66891;46.884;17.436;2023-03-23T08:33:42;9.45;;;2.30;;
77591;SDS011;66891;46.884;17.436;2023-03-23T08:36:08;9.25;;;2.30;;
77591;SDS011;66891;46.884;17.436;2023-03-23T08:38:34;7.13;;;2.40;;
77591;SDS011;66891;46.884;17.436;2023-03-23T08:41:03;10.63;;;3.00;;
77591;SDS011;66891;46.884;17.436;2023-03-23T08:43:31;6.30;;;2.28;;
77591;SDS011;66891;46.884;17.436;2023-03-23T08:46:00;9.60;;;3.28;;
77591;SDS011;66891;46.884;17.436;2023-03-23T08:48:32;7.40;;;2.50;;
77591;SDS011;66891;46.884;17.436;2023-03-23T08:51:08;10.40;;;2.95;;
77591;SDS011;66891;46.884;17.436;2023-03-23T08:53:36;8.07;;;3.13;;
77591;SDS011;66891;46.884;17.436;2023-03-23T08:58:56;9.13;;;3.83;;
77591;SDS011;66891;46.884;17.436;2023-03-23T09:01:44;8.90;;;3.97;;
77591;SDS011;66891;46.884;17.436;2023-03-23T09:04:11;10.93;;;4.65;;
77591;SDS011;66891;46.884;17.436;2023-03-23T09:06:37;7.53;;;3.03;;
77591;SDS011;66891;46.884;17.436;2023-03-23T09:09:04;7.72;;;3.17;;
77591;SDS011;66891;46.884;17.436;2023-03-23T09:11:32;8.80;;;2.60;;
77591;SDS011;66891;46.884;17.436;2023-03-23T09:14:01;7.75;;;3.30;;
77591;SDS011;66891;46.884;17.436;2023-03-23T09:16:27;8.65;;;3.10;;
77591;SDS011;66891;46.884;17.436;2023-03-23T09:18:55;6.93;;;3.00;;
77591;SDS011;66891;46.884;17.436;2023-03-23T09:21:22;8.20;;;3.45;;
77591;SDS011;66891;46.884;17.436;2023-03-23T09:23:49;8.38;;;3.35;;
77591;SDS011;66891;46.884;17.436;2023-03-23T09:26:15;9.15;;;2.95;;
77591;SDS011;66891;46.884;17.436;2023-03-23T09:28:42;7.97;;;3.35;;
77591;SDS011;66891;46.884;17.436;2023-03-23T09:31:09;9.33;;;3.40;;
77591;SDS011;66891;46.884;17.436;2023-03-23T09:33:36;8.13;;;3.35;;
77591;SDS011;66891;46.884;17.436;2023-03-23T09:36:04;9.00;;;3.92;;
77591;SDS011;66891;46.884;17.436;2023-03-23T09:38:33;11.27;;;3.65;;
77591;SDS011;66891;46.884;17.436;2023-03-23T09:41:03;10.65;;;3.72;;
77591;SDS011;66891;46.884;17.436;2023-03-23T09:43:44;12.53;;;3.47;;
77591;SDS011;66891;46.884;17.436;2023-03-23T09:46:24;12.55;;;3.72;;
77591;SDS011;66891;46.884;17.436;2023-03-23T09:49:01;9.52;;;3.42;;
77591;SDS011;66891;46.884;17.436;2023-03-23T09:51:34;9.18;;;3.78;;
77591;SDS011;66891;46.884;17.436;2023-03-23T09:54:14;8.75;;;3.75;;
77591;SDS011;66891;46.884;17.436;2023-03-23T09:56:46;9.23;;;3.70;;
77591;SDS011;66891;46.884;17.436;2023-03-23T09:59:15;9.55;;;3.17;;
77591;SDS011;66891;46.884;17.436;2023-03-23T10:01:49;12.95;;;3.20;;
77591;SDS011;66891;46.884;17.436;2023-03-23T10:04:25;9.90;;;2.95;;
77591;SDS011;66891;46.884;17.436;2023-03-23T10:07:00;7.47;;;3.08;;
77591;SDS011;66891;46.884;17.436;2023-03-23T10:09:35;9.83;;;3.13;;
77591;SDS011;66891;46.884;17.436;2023-03-23T10:12:11;10.93;;;3.30;;
77591;SDS011;66891;46.884;17.436;2023-03-23T10:14:58;10.93;;;2.90;;
77591;SDS011;66891;46.884;17.436;2023-03-23T10:17:54;8.60;;;2.78;;
77591;SDS011;66891;46.884;17.436;2023-03-23T10:20:46;12.95;;;3.00;;
77591;SDS011;66891;46.884;17.436;2023-03-23T10:23:32;8.53;;;2.60;;
77591;SDS011;66891;46.884;17.436;2023-03-23T10:26:11;12.27;;;3.10;;
77591;SDS011;66891;46.884;17.436;2023-03-23T10:28:48;10.90;;;2.90;;
77591;SDS011;66891;46.884;17.436;2023-03-23T10:31:18;9.50;;;2.67;;
77591;SDS011;66891;46.884;17.436;2023-03-23T10:33:48;9.63;;;3.05;;
77591;SDS011;66891;46.884;17.436;2023-03-23T10:36:18;10.53;;;3.07;;
77591;SDS011;66891;46.884;17.436;2023-03-23T10:38:49;13.60;;;3.03;;
77591;SDS011;66891;46.884;17.436;2023-03-23T10:41:21;15.15;;;3.05;;
77591;SDS011;66891;46.884;17.436;2023-03-23T10:43:50;12.18;;;3.30;;
77591;SDS011;66891;46.884;17.436;2023-03-23T10:46:22;7.82;;;3.20;;
77591;SDS011;66891;46.884;17.436;2023-03-23T10:48:56;10.13;;;3.37;;
77591;SDS011;66891;46.884;17.436;2023-03-23T10:51:27;15.73;;;3.28;;
77591;SDS011;66891;46.884;17.436;2023-03-23T10:54:00;12.50;;;2.95;;
77591;SDS011;66891;46.884;17.436;2023-03-23T10:56:29;14.10;;;3.50;;
77591;SDS011;66891;46.884;17.436;2023-03-23T10:59:11;25.38;;;4.65;;
77591;SDS011;66891;46.884;17.436;2023-03-23T11:01:41;20.10;;;4.43;;
77591;SDS011;66891;46.884;17.436;2023-03-23T11:04:11;23.70;;;4.47;;
77591;SDS011;66891;46.884;17.436;2023-03-23T11:06:38;23.85;;;4.03;;
77591;SDS011;66891;46.884;17.436;2023-03-23T11:09:14;12.65;;;3.40;;
77591;SDS011;66891;46.884;17.436;2023-03-23T11:11:48;13.02;;;3.40;;
77591;SDS011;66891;46.884;17.436;2023-03-23T11:14:17;17.83;;;4.03;;
77591;SDS011;66891;46.884;17.436;2023-03-23T11:16:46;19.08;;;3.70;;
77591;SDS011;66891;46.884;17.436;2023-03-23T11:19:24;10.77;;;3.28;;
77591;SDS011;66891;46.884;17.436;2023-03-23T11:21:52;18.45;;;3.20;;
77591;SDS011;66891;46.884;17.436;2023-03-23T11:24:22;18.70;;;4.70;;
77591;SDS011;66891;46.884;17.436;2023-03-23T11:29:47;22.75;;;4.20;;
77591;SDS011;66891;46.884;17.436;2023-03-23T11:32:22;38.38;;;4.60;;
77591;SDS011;66891;46.884;17.436;2023-03-23T11:34:54;8.93;;;3.97;;
77591;SDS011;66891;46.884;17.436;2023-03-23T11:37:31;11.23;;;3.95;;
77591;SDS011;66891;46.884;17.436;2023-03-23T11:40:01;7.20;;;3.27;;
77591;SDS011;66891;46.884;17.436;2023-03-23T11:42:42;7.60;;;3.40;;
77591;SDS011;66891;46.884;17.436;2023-03-23T11:45:14;8.43;;;3.72;;
77591;SDS011;66891;46.884;17.436;2023-03-23T11:47:46;7.32;;;3.70;;
77591;SDS011;66891;46.884;17.436;2023-03-23T11:50:22;8.75;;;3.42;;
77591;SDS011;66891;46.884;17.436;2023-03-23T11:53:01;7.73;;;3.67;;
77591;SDS011;66891;46.884;17.436;2023-03-23T11:55:49;7.68;;;3.22;;
77591;SDS011;66891;46.884;17.436;2023-03-23T11:58:20;7.78;;;3.50;;
77591;SDS011;66891;46.884;17.436;2023-03-23T12:00:48;7.97;;;3.58;;
77591;SDS011;66891;46.884;17.436;2023-03-23T12:03:21;7.40;;;3.58;;
77591;SDS011;66891;46.884;17.436;2023-03-23T12:05:51;9.23;;;4.00;;
77591;SDS011;66891;46.884;17.436;2023-03-23T12:08:31;8.18;;;3.50;;
77591;SDS011;66891;46.884;17.436;2023-03-23T12:11:12;11.65;;;3.90;;
77591;SDS011;66891;46.884;17.436;2023-03-23T12:13:52;8.07;;;3.28;;
77591;SDS011;66891;46.884;17.436;2023-03-23T12:16:30;9.07;;;3.53;;
77591;SDS011;66891;46.884;17.436;2023-03-23T12:19:46;9.47;;;3.80;;
77591;SDS011;66891;46.884;17.436;2023-03-23T12:22:32;8.57;;;3.67;;
77591;SDS011;66891;46.884;17.436;2023-03-23T12:25:12;10.35;;;4.18;;
77591;SDS011;66891;46.884;17.436;2023-03-23T12:28:02;9.70;;;3.92;;
77591;SDS011;66891;46.884;17.436;2023-03-23T12:30:34;10.52;;;4.20;;
77591;SDS011;66891;46.884;17.436;2023-03-23T12:33:11;10.80;;;3.73;;
77591;SDS011;66891;46.884;17.436;2023-03-23T12:35:47;13.40;;;4.03;;
77591;SDS011;66891;46.884;17.436;2023-03-23T12:38:25;11.20;;;4.05;;
77591;SDS011;66891;46.884;17.436;2023-03-23T12:41:17;9.77;;;3.72;;
77591;SDS011;66891;46.884;17.436;2023-03-23T12:43:51;26.02;;;4.57;;
77591;SDS011;66891;46.884;17.436;2023-03-23T12:46:24;13.83;;;3.80;;
77591;SDS011;66891;46.884;17.436;2023-03-23T12:49:07;13.55;;;3.78;;
77591;SDS011;66891;46.884;17.436;2023-03-23T12:51:39;11.20;;;3.10;;
77591;SDS011;66891;46.884;17.436;2023-03-23T12:54:13;27.33;;;5.25;;
77591;SDS011;66891;46.884;17.436;2023-03-23T12:56:47;13.48;;;3.85;;
77591;SDS011;66891;46.884;17.436;2023-03-23T12:59:23;9.63;;;3.70;;
77591;SDS011;66891;46.884;17.436;2023-03-23T13:01:55;10.90;;;4.18;;
77591;SDS011;66891;46.884;17.436;2023-03-23T13:04:28;11.30;;;4.05;;
77591;SDS011;66891;46.884;17.436;2023-03-23T13:07:03;13.48;;;4.15;;
77591;SDS011;66891;46.884;17.436;2023-03-23T13:09:35;13.77;;;3.88;;
77591;SDS011;66891;46.884;17.436;2023-03-23T13:12:20;8.20;;;4.20;;
77591;SDS011;66891;46.884;17.436;2023-03-23T13:14:53;7.07;;;3.70;;
77591;SDS011;66891;46.884;17.436;2023-03-23T13:20:46;8.02;;;3.10;;
77591;SDS011;66891;46.884;17.436;2023-03-23T13:23:21;9.75;;;3.88;;
77591;SDS011;66891;46.884;17.436;2023-03-23T13:25:53;7.73;;;3.80;;
77591;SDS011;66891;46.884;17.436;2023-03-23T13:28:25;9.40;;;3.92;;
77591;SDS011;66891;46.884;17.436;2023-03-23T13:30:59;9.43;;;4.38;;
77591;SDS011;66891;46.884;17.436;2023-03-23T13:33:32;10.43;;;4.85;;
77591;SDS011;66891;46.884;17.436;2023-03-23T13:36:04;9.93;;;4.38;;
77591;SDS011;66891;46.884;17.436;2023-03-23T13:38:34;8.50;;;3.83;;
77591;SDS011;66891;46.884;17.436;2023-03-23T13:41:08;9.00;;;3.80;;
77591;SDS011;66891;46.884;17.436;2023-03-23T13:43:37;10.98;;;3.65;;
77591;SDS011;66891;46.884;17.436;2023-03-23T13:46:08;8.80;;;3.90;;
77591;SDS011;66891;46.884;17.436;2023-03-23T13:48:43;10.00;;;4.22;;
77591;SDS011;66891;46.884;17.436;2023-03-23T13:51:31;10.63;;;4.03;;
77591;SDS011;66891;46.884;17.436;2023-03-23T13:54:14;8.93;;;3.90;;
77591;SDS011;66891;46.884;17.436;2023-03-23T13:56:47;9.70;;;4.13;;
77591;SDS011;66891;46.884;17.436;2023-03-23T13:59:28;8.73;;;3.78;;
77591;SDS011;66891;46.884;17.436;2023-03-23T14:04:55;9.60;;;3.87;;
77591;SDS011;66891;46.884;17.436;2023-03-23T14:07:23;8.40;;;3.67;;
77591;SDS011;66891;46.884;17.436;2023-03-23T14:09:49;7.82;;;3.88;;
77591;SDS011;66891;46.884;17.436;2023-03-23T14:12:17;8.60;;;3.67;;
77591;SDS011;66891;46.884;17.436;2023-03-23T14:14:46;13.52;;;4.35;;
77591;SDS011;66891;46.884;17.436;2023-03-23T14:17:17;13.37;;;4.80;;
77591;SDS011;66891;46.884;17.436;2023-03-23T14:19:48;12.40;;;4.57;;
77591;SDS011;66891;46.884;17.436;2023-03-23T14:22:17;10.30;;;4.47;;
77591;SDS011;66891;46.884;17.436;2023-03-23T14:24:45;15.00;;;5.07;;
77591;SDS011;66891;46.884;17.436;2023-03-23T14:27:13;16.98;;;4.40;;
77591;SDS011;66891;46.884;17.436;2023-03-23T14:29:41;9.23;;;3.87;;
77591;SDS011;66891;46.884;17.436;2023-03-23T14:32:07;15.23;;;5.00;;
77591;SDS011;66891;46.884;17.436;2023-03-23T14:34:42;16.17;;;5.43;;
77591;SDS011;66891;46.884;17.436;2023-03-23T14:37:11;15.77;;;6.03;;
77591;SDS011;66891;46.884;17.436;2023-03-23T14:39:39;20.23;;;6.13;;
77591;SDS011;66891;46.884;17.436;2023-03-23T14:42:11;29.17;;;7.27;;
77591;SDS011;66891;46.884;17.436;2023-03-23T14:44:40;18.15;;;7.22;;
77591;SDS011;66891;46.884;17.436;2023-03-23T14:47:10;24.20;;;7.63;;
77591;SDS011;66891;46.884;17.436;2023-03-23T14:49:52;17.83;;;6.65;;
77591;SDS011;66891;46.884;17.436;2023-03-23T14:52:21;27.02;;;7.90;;
77591;SDS011;66891;46.884;17.436;2023-03-23T14:54:48;21.97;;;8.57;;
77591;SDS011;66891;46.884;17.436;2023-03-23T14:57:16;19.98;;;7.70;;
77591;SDS011;66891;46.884;17.436;2023-03-23T14:59:44;17.30;;;8.55;;
77591;SDS011;66891;46.884;17.436;2023-03-23T15:02:13;17.15;;;7.68;;
77591;SDS011;66891;46.884;17.436;2023-03-23T15:04:42;16.08;;;7.88;;
77591;SDS011;66891;46.884;17.436;2023-03-23T15:07:12;20.07;;;6.83;;
77591;SDS011;66891;46.884;17.436;2023-03-23T15:09:42;18.40;;;6.68;;
77591;SDS011;66891;46.884;17.436;2023-03-23T15:12:19;15.20;;;7.20;;
77591;SDS011;66891;46.884;17.436;2023-03-23T15:14:47;16.13;;;8.00;;
77591;SDS011;66891;46.884;17.436;2023-03-23T15:17:18;16.10;;;6.70;;
77591;SDS011;66891;46.884;17.436;2023-03-23T15:19:45;12.33;;;6.33;;